Nikki Jo. C. — WBA5546 — position and weather

sailwx.info

Track history (hours):
 
Tides and Currents Weather Stations Pressure Air Temp Water Temp Dewpoint Dewpoint Depression Visibility Wind Speed Wind Dir Waves Ship Positions

Nikki Jo. C.

Owner: JACKSON CREEK SEAFOOD INC, DELTAVILLE, VA. More information available from US FCC via Universal Licensing System and Coast Guard Vessel Documentation Center.

Last reported at 2018-Jun-14 09:41 UTC. Time now 2018-Jun-18 15:16 UTC.
Position N 37°38' W 076°26'.

Length 20 m; draft 1 m.

Type: Tug. MMSI: 367127830.

Date/timePositionNaut miles runAvg speedWind from/ knotsBaromVisibWave heightAir tempDewpointWater temp
2018-Jun-14 09:41N 37°38' W 076°26'25 0.6
2018-Jun-12 18:27N 38°02' W 076°17'3 6.1
2018-Jun-12 18:00N 38°01' W 076°20'3 6.5
2018-Jun-12 17:28N 38°02' W 076°25'3 6.3
2018-Jun-12 17:00N 38°02' W 076°28'3 6.2
2018-Jun-12 16:30N 38°02' W 076°32'2 3.2
2018-Jun-12 15:57N 38°02' W 076°34'0 0.0
2018-Jun-12 15:30N 38°02' W 076°34'  
2018-Jun-06 11:59N 38°02' W 076°35'0 0.1
2018-Jun-06 11:30N 38°02' W 076°34'3 5.3
2018-Jun-06 10:58N 38°02' W 076°31'3 6.6
2018-Jun-06 10:29N 38°03' W 076°27'25 1.0
2018-Jun-05 08:24N 37°38' W 076°26'  
Track history (hours):
 
Tides and Currents Weather Stations Pressure Air Temp Water Temp Dewpoint Dewpoint Depression Visibility Wind Speed Wind Dir Waves Ship Positions

Nikki Jo. C.

Owner: JACKSON CREEK SEAFOOD INC, DELTAVILLE, VA. More information available from US FCC via Universal Licensing System and Coast Guard Vessel Documentation Center.

Last reported at 2018-Jun-14 09:41 UTC. Time now 2018-Jun-18 15:16 UTC.
Position N 37°38' W 076°26'.

Length 20 m; draft 1 m.

Type: Tug. MMSI: 367127830.

Date/timePositionNaut miles runAvg speedWind from/ knotsBaromVisibWave heightAir tempDewpointWater temp
2018-Jun-14 09:41N 37°38' W 076°26'25 0.6
2018-Jun-12 18:27N 38°02' W 076°17'3 6.1
2018-Jun-12 18:00N 38°01' W 076°20'3 6.5
2018-Jun-12 17:28N 38°02' W 076°25'3 6.3
2018-Jun-12 17:00N 38°02' W 076°28'3 6.2
2018-Jun-12 16:30N 38°02' W 076°32'2 3.2
2018-Jun-12 15:57N 38°02' W 076°34'0 0.0
2018-Jun-12 15:30N 38°02' W 076°34'  
2018-Jun-06 11:59N 38°02' W 076°35'0 0.1
2018-Jun-06 11:30N 38°02' W 076°34'3 5.3
2018-Jun-06 10:58N 38°02' W 076°31'3 6.6
2018-Jun-06 10:29N 38°03' W 076°27'25 1.0
2018-Jun-05 08:24N 37°38' W 076°26'  

Dump ship's entire track history